Time;durP1;ratioP1;P1;durP2;ratioP2;P2;SDS_P1;SDS_P2;PMS_P1;PMS_P2;Temp;Humidity;BMP_temperature;BMP_pressure;BME280_temperature;BME280_humidity;BME280_pressure;Samples;Min_cycle;Max_cycle;Signal;HPM_P1;HPM_P2
2023/06/10 00:00:06;;;;;;;12.30;9.93;;;;;;;22.99;81.95;100374.91;4919349;29;20052;-81
2023/06/10 00:02:43;;;;;;;12.55;9.95;;;;;;;22.95;82.15;100372.06;4918688;29;20064;-81
2023/06/10 00:05:12;;;;;;;13.60;9.85;;;;;;;23.09;82.69;100371.53;4919431;29;20074;-81
2023/06/10 00:07:41;;;;;;;12.30;9.68;;;;;;;23.01;82.00;100377.34;4919137;29;20059;-81
2023/06/10 00:10:10;;;;;;;12.63;10.07;;;;;;;22.89;82.55;100369.94;4919287;29;20051;-81
2023/06/10 00:12:38;;;;;;;12.80;10.05;;;;;;;22.97;82.68;100377.25;4901279;29;20498;-80
2023/06/10 00:15:07;;;;;;;16.85;10.82;;;;;;;23.01;82.79;100372.56;4900065;29;20048;-81
2023/06/10 00:17:38;;;;;;;11.80;9.38;;;;;;;23.11;83.43;100381.50;4897400;29;20052;-81
2023/06/10 00:20:11;;;;;;;12.88;9.73;;;;;;;23.08;83.11;100369.88;4900243;29;20048;-81
2023/06/10 00:22:41;;;;;;;13.63;9.07;;;;;;;23.12;82.00;100366.38;4900229;29;20060;-81
2023/06/10 00:25:10;;;;;;;13.30;9.80;;;;;;;22.90;84.21;100363.16;4899959;29;20044;-81
2023/06/10 00:27:39;;;;;;;12.73;9.38;;;;;;;22.87;82.97;100364.72;4899865;29;20060;-81
2023/06/10 00:30:08;;;;;;;12.93;9.40;;;;;;;22.97;83.34;100366.09;4918191;29;20052;-81
2023/06/10 00:32:37;;;;;;;13.15;9.98;;;;;;;22.91;82.25;100359.19;4918664;29;20056;-81
2023/06/10 00:35:06;;;;;;;12.95;9.30;;;;;;;23.11;82.26;100387.88;4918726;29;20473;-81
2023/06/10 00:37:36;;;;;;;12.30;9.43;;;;;;;23.14;83.42;100383.53;4901780;29;20056;-81
2023/06/10 00:40:05;;;;;;;15.65;9.88;;;;;;;23.09;84.35;100374.31;4918833;29;20472;-81
2023/06/10 00:42:33;;;;;;;13.65;10.43;;;;;;;23.05;85.06;100381.81;4901495;29;20055;-80
2023/06/10 00:45:01;;;;;;;14.38;10.40;;;;;;;22.92;86.01;100370.00;4901733;29;20044;-80
2023/06/10 00:47:31;;;;;;;14.30;9.93;;;;;;;22.98;86.20;100381.69;4917952;29;20060;-80
2023/06/10 00:50:00;;;;;;;13.82;10.35;;;;;;;22.76;87.06;100370.09;4918850;29;20052;-81
2023/06/10 00:52:30;;;;;;;16.08;11.48;;;;;;;22.71;87.23;100370.41;4918104;29;20403;-81
2023/06/10 00:54:59;;;;;;;16.02;11.82;;;;;;;22.62;88.30;100367.03;4918384;29;20044;-81
2023/06/10 00:57:27;;;;;;;16.77;10.85;;;;;;;22.64;88.88;100379.41;4918057;29;20052;-81
2023/06/10 00:59:57;;;;;;;18.10;12.13;;;;;;;22.65;88.63;100378.28;4916447;29;20048;-81
2023/06/10 01:02:27;;;;;;;15.07;11.10;;;;;;;22.63;88.92;100374.22;4901583;29;20059;-81
2023/06/10 01:05:01;;;;;;;15.85;10.70;;;;;;;22.73;88.57;100390.34;4918347;29;20070;-81
2023/06/10 01:07:48;;;;;;;19.65;11.50;;;;;;;22.84;88.44;100384.19;4901027;29;20542;-81
2023/06/10 01:10:17;;;;;;;14.30;10.77;;;;;;;22.74;87.82;100386.41;4918297;29;20075;-81
2023/06/10 01:12:59;;;;;;;14.93;11.13;;;;;;;22.78;88.36;100386.47;4918311;29;20044;-81
2023/06/10 01:15:27;;;;;;;17.33;11.73;;;;;;;22.72;88.25;100377.59;4916897;29;20059;-81
2023/06/10 01:17:57;;;;;;;16.08;11.77;;;;;;;22.66;88.29;100379.88;4917821;29;20063;-81
2023/06/10 01:20:27;;;;;;;15.65;11.15;;;;;;;22.52;88.20;100385.16;4918165;29;20048;-81
2023/06/10 01:22:57;;;;;;;16.42;11.32;;;;;;;22.64;87.99;100387.00;4901527;29;20044;-81
2023/06/10 01:25:28;;;;;;;14.85;10.77;;;;;;;22.33;88.89;100374.78;4918033;29;20044;-81
2023/06/10 01:28:13;;;;;;;13.23;10.27;;;;;;;22.57;89.09;100384.84;4917610;29;20056;-81
2023/06/10 01:31:03;;;;;;;14.27;10.57;;;;;;;22.64;86.85;100382.22;4917814;29;20048;-81
2023/06/10 01:33:35;;;;;;;17.88;12.63;;;;;;;22.53;88.38;100384.78;4917700;29;20400;-81
2023/06/10 01:36:04;;;;;;;16.20;12.27;;;;;;;22.37;89.25;100379.25;4917790;29;20055;-80
2023/06/10 01:38:52;;;;;;;17.48;12.18;;;;;;;22.44;88.78;100378.63;4917666;29;20315;-81
2023/06/10 01:41:21;;;;;;;18.77;12.38;;;;;;;22.52;88.46;100379.56;4916638;29;20059;-80
2023/06/10 01:43:49;;;;;;;23.58;13.77;;;;;;;22.39;89.31;100384.47;4900743;29;20048;-81
2023/06/10 01:46:21;;;;;;;21.60;13.80;;;;;;;22.34;89.63;100368.03;4917503;29;20051;-80
2023/06/10 01:48:49;;;;;;;17.33;12.73;;;;;;;22.24;89.52;100373.00;4916424;29;20055;-80
2023/06/10 01:51:17;;;;;;;18.00;13.15;;;;;;;22.40;89.65;100383.28;4917661;29;20475;-80
2023/06/10 01:53:45;;;;;;;19.08;12.88;;;;;;;22.43;89.52;100382.56;4916271;29;20423;-80
2023/06/10 01:56:19;;;;;;;18.98;13.18;;;;;;;22.35;90.05;100378.00;4917380;29;20052;-80
2023/06/10 01:58:47;;;;;;;21.93;13.77;;;;;;;22.23;90.58;100367.78;4900278;29;20063;-80
2023/06/10 02:01:15;;;;;;;25.00;13.73;;;;;;;22.37;89.91;100367.28;4916091;29;20740;-80
2023/06/10 02:03:43;;;;;;;19.15;12.98;;;;;;;22.36;91.07;100379.63;4917376;29;20573;-80
2023/06/10 02:06:11;;;;;;;20.98;13.25;;;;;;;22.15;91.60;100366.84;4916858;29;20052;-80
2023/06/10 02:08:39;;;;;;;19.52;13.02;;;;;;;22.09;91.03;100366.31;4916985;29;20048;-80
2023/06/10 02:11:07;;;;;;;15.95;11.70;;;;;;;22.06;91.60;100357.88;4917048;29;20044;-80
2023/06/10 02:13:38;;;;;;;19.48;12.00;;;;;;;22.02;91.02;100353.06;4900139;29;20048;-80
2023/06/10 02:16:07;;;;;;;17.42;12.27;;;;;;;22.06;90.50;100363.47;4916969;29;20082;-80
2023/06/10 02:18:36;;;;;;;16.10;11.93;;;;;;;21.97;90.77;100361.69;4899943;29;20118;-80
2023/06/10 02:21:04;;;;;;;18.52;11.45;;;;;;;21.91;91.25;100362.31;4917040;29;20048;-80
2023/06/10 02:23:32;;;;;;;15.70;12.32;;;;;;;21.83;91.79;100359.38;4916947;29;20491;-80
2023/06/10 02:26:04;;;;;;;15.07;11.30;;;;;;;21.74;92.02;100365.16;4915324;29;20048;-80
2023/06/10 02:28:32;;;;;;;19.58;11.77;;;;;;;21.81;91.25;100360.91;4916613;29;20600;-79
2023/06/10 02:31:00;;;;;;;18.30;13.10;;;;;;;21.74;91.14;100362.38;4899907;29;20059;-79
2023/06/10 02:33:29;;;;;;;18.17;13.27;;;;;;;21.56;93.39;100364.69;4916837;29;20133;-79
2023/06/10 02:35:57;;;;;;;19.15;12.48;;;;;;;21.72;91.68;100367.50;4898969;29;20056;-79
2023/06/10 02:38:27;;;;;;;19.63;13.35;;;;;;;21.72;91.93;100372.25;4915193;29;20048;-79
2023/06/10 02:40:55;;;;;;;20.65;12.52;;;;;;;21.85;91.50;100375.75;4899553;29;20048;-79
2023/06/10 02:43:24;;;;;;;19.63;13.35;;;;;;;21.82;92.22;100382.03;4899462;29;20048;-79
2023/06/10 02:45:52;;;;;;;18.20;12.98;;;;;;;21.73;92.70;100363.53;4915379;29;20389;-79
2023/06/10 02:48:21;;;;;;;16.38;11.65;;;;;;;21.55;93.54;100373.41;4915539;29;20055;-79
2023/06/10 02:50:49;;;;;;;17.73;13.13;;;;;;;21.79;92.52;100372.41;4923032;29;20054;-78
2023/06/10 02:53:26;;;;;;;15.88;12.55;;;;;;;21.73;91.86;100371.91;4918189;29;20059;-79
2023/06/10 02:56:02;;;;;;;17.60;12.52;;;;;;;21.74;91.15;100370.72;4918642;29;20059;-79
2023/06/10 02:58:30;;;;;;;15.55;11.48;;;;;;;21.75;91.33;100371.50;4918296;29;20063;-79
2023/06/10 03:00:59;;;;;;;13.27;10.05;;;;;;;21.75;89.77;100383.47;4935306;29;20051;-79
2023/06/10 03:03:33;;;;;;;13.57;8.95;;;;;;;21.68;87.35;100372.13;4918386;29;20121;-79
2023/06/10 03:06:10;;;;;;;11.65;7.40;;;;;;;21.72;85.37;100378.63;4935019;29;20058;-79
2023/06/10 03:08:38;;;;;;;11.05;8.30;;;;;;;21.79;85.20;100383.56;4935226;29;20044;-79
2023/06/10 03:11:11;;;;;;;11.75;7.57;;;;;;;21.90;85.22;100375.47;4918431;29;20058;-79
2023/06/10 03:13:40;;;;;;;10.13;7.82;;;;;;;21.86;84.09;100394.06;4918052;29;20510;-79
2023/06/10 03:16:12;;;;;;;10.93;7.95;;;;;;;21.81;84.04;100384.00;4918124;29;20051;-79
2023/06/10 03:18:41;;;;;;;13.68;8.05;;;;;;;21.74;85.80;100392.19;4917910;29;20048;-79
2023/06/10 03:21:09;;;;;;;11.25;7.78;;;;;;;21.72;84.69;100389.78;4917983;29;20090;-79
2023/06/10 03:23:38;;;;;;;10.60;7.82;;;;;;;;;;4920508;29;20057;-78
2023/06/10 03:26:08;;;;;;;13.57;8.40;;;;;;;21.65;86.43;100395.13;4938718;29;20048;-79
2023/06/10 03:28:39;;;;;;;10.63;7.93;;;;;;;21.64;86.22;100390.72;4938829;29;20047;-79
2023/06/10 03:31:08;;;;;;;10.68;8.40;;;;;;;21.70;86.07;100391.31;4921824;29;20075;-78
2023/06/10 03:33:38;;;;;;;11.95;8.27;;;;;;;21.79;86.24;100399.47;4905844;29;20048;-78
2023/06/10 03:36:07;;;;;;;13.18;8.52;;;;;;;21.84;86.31;100396.38;4938681;29;20062;-79
2023/06/10 03:38:36;;;;;;;11.55;9.18;;;;;;;21.56;87.90;100386.16;4921661;29;20058;-79
2023/06/10 03:41:05;;;;;;;10.30;7.55;;;;;;;21.56;85.01;100400.09;4921614;29;20055;-79
2023/06/10 03:43:34;;;;;;;11.57;7.57;;;;;;;21.34;85.91;100391.19;4921786;29;20067;-80
2023/06/10 03:46:02;;;;;;;10.40;7.35;;;;;;;21.39;86.33;100382.56;4921472;29;20043;-79
2023/06/10 03:48:30;;;;;;;10.40;8.15;;;;;;;21.34;85.65;100393.97;4921274;29;20055;-79
2023/06/10 03:50:59;;;;;;;9.40;7.22;;;;;;;21.25;86.35;100399.72;4937180;29;20079;-79
2023/06/10 03:53:27;;;;;;;10.75;7.57;;;;;;;21.03;86.93;100398.34;4938160;29;20059;-80
2023/06/10 03:55:57;;;;;;;10.20;7.93;;;;;;;21.16;87.54;100401.88;4937294;29;20044;-79
2023/06/10 03:58:26;;;;;;;11.20;8.13;;;;;;;21.01;87.52;100401.47;4921436;29;20047;-79
2023/06/10 04:00:55;;;;;;;11.18;7.30;;;;;;;20.96;87.93;100403.72;4938302;29;20063;-79
2023/06/10 04:03:31;;;;;;;10.18;7.95;;;;;;;20.87;88.25;100390.75;4921241;29;20040;-79
2023/06/10 04:06:00;;;;;;;9.70;7.90;;;;;;;21.20;88.22;100397.19;4937981;29;20051;-78
2023/06/10 04:08:28;;;;;;;11.25;7.70;;;;;;;21.22;86.49;100400.44;4938186;29;20052;-78
2023/06/10 04:10:57;;;;;;;10.75;7.82;;;;;;;21.47;85.37;100400.25;4921326;29;20048;-79
2023/06/10 04:13:28;;;;;;;10.05;7.80;;;;;;;21.41;85.14;100385.00;4921101;29;20521;-79
2023/06/10 04:15:59;;;;;;;10.85;8.18;;;;;;;21.67;82.79;100398.38;4936901;29;20062;-79
2023/06/10 04:18:27;;;;;;;10.68;8.07;;;;;;;21.60;83.84;100400.97;4936725;29;20058;-80
2023/06/10 04:20:58;;;;;;;11.05;8.23;;;;;;;21.68;85.09;100394.41;4936649;29;20059;-79
2023/06/10 04:23:26;;;;;;;11.23;7.53;;;;;;;21.44;85.59;100396.22;4921010;29;20047;-79
2023/06/10 04:25:54;;;;;;;10.45;7.72;;;;;;;21.54;85.24;100389.31;4930708;29;20052;-79
2023/06/10 04:28:23;;;;;;;14.05;8.82;;;;;;;21.34;85.35;100385.63;4896986;29;20048;-79
2023/06/10 04:31:01;;;;;;;10.93;8.35;;;;;;;21.17;86.26;100379.22;4886053;29;20044;-79
2023/06/10 04:33:30;;;;;;;10.40;6.90;;;;;;;21.86;85.83;100383.72;4917051;29;20063;-80
2023/06/10 04:36:01;;;;;;;8.65;6.28;;;;;;;22.10;83.48;100381.84;4901082;29;20059;-81
2023/06/10 04:38:31;;;;;;;9.95;7.47;;;;;;;22.42;81.30;100386.50;4900941;29;20048;-82
2023/06/10 04:41:00;;;;;;;8.43;6.80;;;;;;;22.46;79.97;100387.41;4917027;29;20048;-81
2023/06/10 04:43:31;;;;;;;10.85;6.85;;;;;;;22.62;79.42;100381.00;4885837;29;20404;-82
2023/06/10 04:46:01;;;;;;;9.40;6.47;;;;;;;22.70;77.98;100379.94;4918006;29;20055;-82
2023/06/10 04:48:30;;;;;;;11.13;6.60;;;;;;;22.77;77.92;100382.09;4901425;29;20411;-82
2023/06/10 04:50:58;;;;;;;8.93;6.70;;;;;;;22.95;77.39;100399.97;4917200;29;20083;-82
2023/06/10 04:53:28;;;;;;;7.60;6.07;;;;;;;22.88;77.45;100385.06;4900610;29;20044;-83
2023/06/10 04:55:57;;;;;;;9.23;7.43;;;;;;;22.95;78.02;100390.78;4917504;29;20044;-83
2023/06/10 04:58:25;;;;;;;10.27;7.38;;;;;;;22.86;78.22;100388.22;4917463;29;20047;-83
2023/06/10 05:00:53;;;;;;;9.90;7.53;;;;;;;23.05;78.09;100392.16;4917988;29;20487;-82
2023/06/10 05:03:21;;;;;;;9.20;6.82;;;;;;;22.92;78.00;100385.94;4900344;29;20055;-82
2023/06/10 05:05:49;;;;;;;10.02;7.43;;;;;;;22.92;77.08;100388.75;4914343;29;20419;-82
2023/06/10 05:08:18;;;;;;;11.02;6.95;;;;;;;22.92;76.70;100391.53;4917788;29;20052;-82
2023/06/10 05:10:46;;;;;;;9.40;6.55;;;;;;;22.93;75.65;100384.75;4917837;29;20057;-82
2023/06/10 05:13:15;;;;;;;6.65;5.72;;;;;;;22.94;75.16;100398.31;4917874;29;20377;-82
2023/06/10 05:15:44;;;;;;;9.25;6.28;;;;;;;23.04;76.42;100398.91;4917786;29;20079;-82
2023/06/10 05:18:12;;;;;;;10.50;6.13;;;;;;;22.94;75.96;100381.59;4916321;29;20048;-82
2023/06/10 05:20:40;;;;;;;7.10;5.47;;;;;;;22.98;75.88;100383.66;4917663;29;20513;-83
2023/06/10 05:23:08;;;;;;;8.18;6.25;;;;;;;23.05;76.00;100395.75;4916880;29;20056;-82
2023/06/10 05:25:36;;;;;;;9.45;6.28;;;;;;;22.99;76.18;100391.66;4917044;29;20051;-82
2023/06/10 05:28:04;;;;;;;10.20;6.50;;;;;;;23.04;76.04;100404.50;4915727;29;20052;-82
2023/06/10 05:30:32;;;;;;;8.35;6.40;;;;;;;23.02;76.56;100398.47;4917669;29;20055;-83
2023/06/10 05:33:00;;;;;;;10.50;6.88;;;;;;;23.09;75.93;100399.44;4917331;29;20514;-82
2023/06/10 05:35:28;;;;;;;9.88;6.28;;;;;;;23.10;75.94;100397.44;4917527;29;20040;-83
2023/06/10 05:37:56;;;;;;;9.57;7.00;;;;;;;23.06;76.39;100388.16;4916971;29;20044;-83
2023/06/10 05:40:27;;;;;;;10.30;7.18;;;;;;;22.88;75.22;100390.66;4917372;29;20055;-83
2023/06/10 05:42:55;;;;;;;11.00;7.10;;;;;;;22.96;76.83;100395.16;4916083;29;20056;-83
2023/06/10 05:45:23;;;;;;;8.93;6.43;;;;;;;23.02;76.52;100401.28;4903346;29;20499;-83
2023/06/10 05:47:51;;;;;;;9.73;6.90;;;;;;;22.95;77.20;100390.78;4916932;29;20515;-83
2023/06/10 05:50:19;;;;;;;10.10;7.05;;;;;;;23.12;76.45;100391.47;4916896;29;20047;-83
2023/06/10 05:52:47;;;;;;;8.38;6.22;;;;;;;23.09;75.89;100385.47;4917021;29;20055;-83
2023/06/10 05:55:15;;;;;;;10.45;6.97;;;;;;;23.21;75.95;100378.88;4916597;29;20044;-83
2023/06/10 05:57:43;;;;;;;11.88;7.00;;;;;;;23.35;76.65;100380.34;4917057;29;20597;-83
2023/06/10 06:00:12;;;;;;;11.05;7.28;;;;;;;23.36;75.75;100376.34;4916982;29;20479;-83
2023/06/10 06:02:40;;;;;;;14.00;7.53;;;;;;;23.34;76.87;100385.13;4916500;29;20376;-83
2023/06/10 06:05:08;;;;;;;9.23;6.68;;;;;;;23.32;76.55;100373.50;4915375;29;20036;-83
2023/06/10 06:07:37;;;;;;;8.60;6.88;;;;;;;23.43;75.53;100381.28;4915004;29;20052;-83
2023/06/10 06:10:05;;;;;;;10.32;6.43;;;;;;;23.45;75.90;100384.47;4916796;29;20492;-83
2023/06/10 06:12:33;;;;;;;8.60;6.53;;;;;;;23.46;75.15;100369.38;4899705;29;20400;-83
2023/06/10 06:15:01;;;;;;;10.77;7.13;;;;;;;23.51;75.03;100388.56;4915926;29;20051;-83
2023/06/10 06:17:30;;;;;;;9.13;6.00;;;;;;;23.43;75.15;100386.84;4915918;29;20063;-83
2023/06/10 06:19:58;;;;;;;8.50;6.45;;;;;;;23.64;75.28;100391.19;4916527;29;20052;-83
2023/06/10 06:22:26;;;;;;;9.07;6.97;;;;;;;23.64;74.32;100380.03;4915995;29;20048;-83
2023/06/10 06:24:54;;;;;;;7.95;6.22;;;;;;;23.62;74.78;100374.81;4916415;29;20052;-84
2023/06/10 06:27:22;;;;;;;8.85;6.18;;;;;;;23.75;74.75;100378.19;4916309;29;20048;-83
2023/06/10 06:29:51;;;;;;;8.70;6.10;;;;;;;23.89;74.27;100392.38;4916176;29;20052;-83
2023/06/10 06:32:20;;;;;;;11.75;7.25;;;;;;;23.72;76.51;100390.94;4898808;29;20044;-83
2023/06/10 06:34:53;;;;;;;9.07;6.75;;;;;;;23.75;75.85;100395.75;4916152;29;20048;-83
2023/06/10 06:37:23;;;;;;;10.25;7.43;;;;;;;23.72;76.07;100390.13;4914954;29;20048;-83
2023/06/10 06:39:58;;;;;;;12.63;6.75;;;;;;;23.68;75.29;100387.25;4899395;29;20059;-83
2023/06/10 06:42:30;;;;;;;11.27;7.30;;;;;;;23.72;74.48;100392.91;4915589;29;20048;-83
2023/06/10 06:45:04;;;;;;;11.90;7.18;;;;;;;23.74;74.68;100390.53;4915049;29;20048;-83
2023/06/10 06:47:32;;;;;;;9.50;6.55;;;;;;;23.83;74.78;100390.28;4916073;29;20048;-80
2023/06/10 06:50:00;;;;;;;13.18;8.23;;;;;;;23.95;73.40;100389.25;4915497;29;20415;-82
2023/06/10 06:52:28;;;;;;;10.60;8.30;;;;;;;23.99;73.62;100396.50;4911505;29;20044;-83
2023/06/10 06:54:56;;;;;;;12.52;7.80;;;;;;;23.79;75.32;100393.00;4905824;29;20040;-83
2023/06/10 06:57:25;;;;;;;10.68;7.93;;;;;;;23.97;74.57;100398.88;4900043;29;20051;-83
2023/06/10 06:59:53;;;;;;;10.95;7.18;;;;;;;24.10;74.70;100401.47;4916033;29;20395;-82
2023/06/10 07:02:21;;;;;;;15.43;10.02;;;;;;;24.04;74.80;100409.34;4915408;29;20057;-82
2023/06/10 07:04:50;;;;;;;15.18;9.38;;;;;;;24.10;75.22;100419.03;4915302;29;20502;-81
2023/06/10 07:07:18;;;;;;;11.60;8.65;;;;;;;24.11;74.87;100398.31;4913427;29;20055;-81
2023/06/10 07:09:46;;;;;;;12.60;9.57;;;;;;;24.08;76.80;100404.66;4915599;29;20044;-82
2023/06/10 07:12:14;;;;;;;14.52;8.93;;;;;;;24.20;75.46;100405.59;4899098;29;20052;-81
2023/06/10 07:14:42;;;;;;;15.82;10.48;;;;;;;24.23;76.47;100407.63;4907889;29;20056;-81
2023/06/10 07:17:10;;;;;;;13.63;9.63;;;;;;;24.33;76.10;100409.78;4906896;29;20044;-81
2023/06/10 07:19:38;;;;;;;19.73;12.63;;;;;;;24.27;78.61;100414.91;4908183;29;20048;-81
2023/06/10 07:22:06;;;;;;;16.70;10.63;;;;;;;24.43;76.93;100406.31;4911153;29;20059;-82
2023/06/10 07:24:35;;;;;;;17.73;11.95;;;;;;;24.48;77.70;100404.38;4906566;29;20597;-81
2023/06/10 07:27:03;;;;;;;21.35;13.40;;;;;;;24.53;77.38;100412.41;4903297;29;20705;-80
2023/06/10 07:29:33;;;;;;;19.08;12.15;;;;;;;24.65;77.27;100415.00;4911286;29;20083;-80
2023/06/10 07:32:03;;;;;;;23.20;13.65;;;;;;;24.59;78.88;100405.31;4905837;29;20040;-81
2023/06/10 07:34:31;;;;;;;21.20;13.43;;;;;;;24.68;78.17;100403.00;4901566;29;20526;-81
2023/06/10 07:36:59;;;;;;;24.27;14.95;;;;;;;24.66;79.71;100405.41;4907887;29;20041;-81
2023/06/10 07:39:27;;;;;;;19.95;13.30;;;;;;;24.75;78.53;100407.09;4910026;29;20499;-81
2023/06/10 07:41:57;;;;;;;23.15;14.23;;;;;;;24.67;81.17;100401.41;4914595;29;20068;-82
2023/06/10 07:44:32;;;;;;;25.23;14.57;;;;;;;24.65;80.75;100398.19;4893905;29;20109;-83
2023/06/10 07:47:04;;;;;;;20.90;13.75;;;;;;;24.76;79.14;100395.53;4907821;29;20053;-81
2023/06/10 07:49:32;;;;;;;23.55;14.77;;;;;;;24.67;81.80;100390.22;4908686;29;20479;-81
2023/06/10 07:52:01;;;;;;;23.52;15.52;;;;;;;24.68;81.02;100386.22;4915068;29;20052;-81
2023/06/10 07:54:29;;;;;;;21.25;14.52;;;;;;;24.96;80.06;100401.75;4914322;29;20056;-81
2023/06/10 07:56:57;;;;;;;24.00;15.15;;;;;;;25.01;81.33;100392.22;4914942;29;20052;-81
2023/06/10 07:59:26;;;;;;;20.88;14.35;;;;;;;24.78;82.15;100381.16;4914933;29;20079;-81
2023/06/10 08:01:54;;;;;;;23.10;15.18;;;;;;;24.87;80.58;100384.47;4911722;29;20519;-81
2023/06/10 08:04:23;;;;;;;25.10;15.32;;;;;;;24.92;81.08;100388.94;4913491;29;20403;-81
2023/06/10 08:06:51;;;;;;;23.33;14.45;;;;;;;25.09;78.63;100393.09;4913513;29;20481;-80
2023/06/10 08:09:23;;;;;;;21.98;13.63;;;;;;;25.05;78.54;100392.25;4909459;29;20055;-80
2023/06/10 08:11:50;;;;;;;22.58;14.15;;;;;;;25.01;80.51;100397.00;4913766;29;20644;-80
2023/06/10 08:14:18;;;;;;;21.38;13.18;;;;;;;25.03;78.09;100394.63;4900993;29;20484;-80
2023/06/10 08:16:47;;;;;;;19.45;12.63;;;;;;;24.94;77.92;100380.94;4917803;29;20605;-80
2023/06/10 08:19:15;;;;;;;20.88;13.15;;;;;;;25.04;77.48;100399.03;4918169;29;20063;-80
2023/06/10 08:21:43;;;;;;;17.63;12.25;;;;;;;25.06;77.11;100389.06;4918026;29;20072;-81
2023/06/10 08:24:11;;;;;;;19.13;12.85;;;;;;;25.01;78.06;100385.78;4901282;29;20408;-80
2023/06/10 08:26:39;;;;;;;23.67;13.65;;;;;;;25.03;77.20;100387.03;4918475;29;20048;-81
2023/06/10 08:29:07;;;;;;;19.88;12.02;;;;;;;25.07;76.03;100399.06;4918289;29;20108;-81
2023/06/10 08:31:35;;;;;;;17.42;11.68;;;;;;;25.06;75.72;100388.25;4918414;29;20487;-81
2023/06/10 08:34:03;;;;;;;19.52;11.73;;;;;;;24.99;75.71;100388.19;4918268;29;20480;-80
2023/06/10 08:36:31;;;;;;;14.73;10.45;;;;;;;25.02;75.28;100402.22;4918285;29;20044;-81
2023/06/10 08:38:59;;;;;;;15.55;10.07;;;;;;;25.20;73.35;100398.78;4917100;29;20048;-80
2023/06/10 08:41:30;;;;;;;12.45;8.77;;;;;;;25.26;72.55;100390.84;4918094;29;20048;-80
2023/06/10 08:44:18;;;;;;;12.43;8.52;;;;;;;25.44;72.04;100391.00;4918122;29;20403;-80
2023/06/10 08:46:48;;;;;;;13.50;8.73;;;;;;;25.43;72.00;100395.81;4917943;29;20052;-80
2023/06/10 08:49:20;;;;;;;14.25;8.85;;;;;;;25.35;72.57;100382.91;4918032;29;20044;-80
2023/06/10 08:51:51;;;;;;;11.88;8.77;;;;;;;25.39;73.87;100392.16;4918119;29;20053;-80
2023/06/10 08:54:23;;;;;;;14.57;8.63;;;;;;;25.37;72.09;100391.75;4917898;29;20048;-80
2023/06/10 08:56:53;;;;;;;11.05;7.85;;;;;;;25.39;72.86;100394.16;4917985;29;20071;-80
2023/06/10 08:59:22;;;;;;;10.65;7.55;;;;;;;25.45;70.85;100393.41;4917845;29;20060;-80
2023/06/10 09:01:50;;;;;;;10.80;7.28;;;;;;;25.56;69.93;100390.72;4917775;29;20044;-80
2023/06/10 09:04:19;;;;;;;12.63;7.22;;;;;;;25.58;71.87;100388.34;4918245;29;20059;-80
2023/06/10 09:06:52;;;;;;;8.45;6.38;;;;;;;25.56;70.37;100385.13;4901263;29;20052;-80
2023/06/10 09:09:21;;;;;;;8.80;6.72;;;;;;;25.46;72.00;100389.41;4917795;29;20511;-80
2023/06/10 09:11:49;;;;;;;13.20;6.50;;;;;;;25.47;72.83;100387.44;4900744;29;20051;-80
2023/06/10 09:14:17;;;;;;;10.23;5.65;;;;;;;25.63;71.17;100387.19;4917621;29;20051;-80
2023/06/10 09:16:46;;;;;;;13.38;6.30;;;;;;;25.44;72.31;100393.78;4900664;29;20399;-80
2023/06/10 09:19:17;;;;;;;9.52;5.97;;;;;;;25.42;72.07;100388.56;4918470;29;20407;-80
2023/06/10 09:21:45;;;;;;;6.75;5.38;;;;;;;25.48;71.81;100394.63;4916986;29;20091;-80
2023/06/10 09:24:14;;;;;;;8.02;6.00;;;;;;;25.53;71.78;100401.88;4917484;29;20048;-80
2023/06/10 09:26:44;;;;;;;7.07;5.13;;;;;;;25.39;71.02;100402.56;4917223;29;20056;-80
2023/06/10 09:29:12;;;;;;;6.57;4.63;;;;;;;25.44;70.43;100407.78;4917207;29;20047;-80
2023/06/10 09:31:40;;;;;;;6.20;4.53;;;;;;;25.34;69.68;100393.34;4917384;29;20056;-80
2023/06/10 09:34:13;;;;;;;9.75;4.90;;;;;;;25.25;68.88;100389.22;4917207;29;20048;-80
2023/06/10 09:36:41;;;;;;;5.20;3.90;;;;;;;25.35;67.81;100388.50;4916108;29;20048;-80
2023/06/10 09:39:17;;;;;;;7.50;4.03;;;;;;;25.22;67.19;100400.00;4899084;29;20040;-80
2023/06/10 09:41:46;;;;;;;5.30;3.40;;;;;;;25.26;67.36;100402.84;4900115;29;20044;-80
2023/06/10 09:44:16;;;;;;;6.93;3.60;;;;;;;25.13;66.96;100405.13;4916914;29;20075;-80
2023/06/10 09:46:50;;;;;;;4.40;2.80;;;;;;;25.32;66.64;100394.91;4900124;29;20048;-80
2023/06/10 09:49:18;;;;;;;4.78;3.13;;;;;;;25.40;66.21;100402.16;4903292;29;20061;-80
2023/06/10 09:51:54;;;;;;;5.22;3.53;;;;;;;25.61;65.56;100400.78;4905954;29;20044;-79
2023/06/10 09:54:22;;;;;;;4.88;2.78;;;;;;;25.34;66.28;100398.13;4912854;29;20059;-80
2023/06/10 09:56:53;;;;;;;4.18;2.78;;;;;;;25.48;65.96;100403.03;4911573;29;20059;-80
2023/06/10 09:59:31;;;;;;;4.38;3.45;;;;;;;25.39;64.99;100405.34;4911198;29;20051;-79
2023/06/10 10:02:00;;;;;;;4.70;2.80;;;;;;;25.65;63.12;100407.19;4897574;29;20048;-79
2023/06/10 10:04:28;;;;;;;3.15;2.60;;;;;;;25.62;63.60;100397.56;4896863;29;20049;-79
2023/06/10 10:06:59;;;;;;;6.13;2.58;;;;;;;25.89;63.33;100402.16;4894101;29;20056;-78
2023/06/10 10:09:27;;;;;;;5.60;2.55;;;;;;;25.92;61.37;100407.00;4898859;29;20044;-79
2023/06/10 10:12:00;;;;;;;4.78;2.50;;;;;;;25.83;61.88;100401.75;4909445;29;20067;-79
2023/06/10 10:14:32;;;;;;;6.82;2.50;;;;;;;25.98;60.65;100405.44;4897916;29;20048;-79
2023/06/10 10:17:04;;;;;;;3.38;2.22;;;;;;;25.96;60.17;100407.81;4904459;29;20063;-78
2023/06/10 10:19:44;;;;;;;3.83;2.35;;;;;;;25.94;61.34;100396.19;4916127;29;20060;-78
2023/06/10 10:22:26;;;;;;;2.28;1.83;;;;;;;25.86;61.98;100388.94;4909120;29;20056;-80
2023/06/10 10:24:57;;;;;;;3.45;2.10;;;;;;;25.74;62.23;100382.47;4914905;29;20051;-79
2023/06/10 10:27:33;;;;;;;3.67;2.38;;;;;;;25.82;61.84;100390.91;4911257;29;20372;-79
2023/06/10 10:30:08;;;;;;;3.53;2.13;;;;;;;25.82;60.54;100390.91;4910214;29;20109;-79
2023/06/10 10:33:04;;;;;;;3.70;1.75;;;;;;;26.05;61.63;100389.84;4906323;29;20041;-80
2023/06/10 10:35:38;;;;;;;5.35;1.83;;;;;;;26.30;61.30;100379.59;4914855;29;20051;-80
2023/06/10 10:38:06;;;;;;;3.30;2.30;;;;;;;26.28;59.55;100382.00;4916111;29;20056;-79
2023/06/10 10:40:35;;;;;;;3.03;2.03;;;;;;;26.50;58.99;100370.88;4916135;29;20044;-79
2023/06/10 10:43:03;;;;;;;4.78;2.13;;;;;;;26.55;58.96;100389.31;4915957;29;20060;-79
2023/06/10 10:45:33;;;;;;;2.78;2.45;;;;;;;26.30;60.42;100387.22;4910982;29;20052;-79
2023/06/10 10:48:12;;;;;;;2.67;2.15;;;;;;;26.47;59.27;100390.47;4897391;29;20051;-79
2023/06/10 10:50:40;;;;;;;2.85;2.60;;;;;;;26.64;57.91;100397.38;4897749;29;20048;-79
2023/06/10 10:53:08;;;;;;;2.63;2.28;;;;;;;26.56;61.04;100383.31;4914726;29;20048;-78
2023/06/10 10:55:36;;;;;;;7.20;2.47;;;;;;;26.75;59.11;100403.81;4915959;29;20055;-79
2023/06/10 10:58:07;;;;;;;2.50;2.10;;;;;;;26.88;58.47;100401.44;4915876;29;20044;-79
2023/06/10 11:00:37;;;;;;;4.13;2.78;;;;;;;26.79;59.15;100399.00;4903975;29;20044;-79
2023/06/10 11:03:07;;;;;;;4.85;2.83;;;;;;;27.00;60.27;100400.31;4905648;29;20044;-77
2023/06/10 11:05:41;;;;;;;4.15;3.08;;;;;;;27.02;59.46;100397.88;4899064;29;20044;-78
2023/06/10 11:08:11;;;;;;;2.67;2.33;;;;;;;27.36;58.48;100382.66;4895860;29;20056;-79
2023/06/10 11:10:41;;;;;;;4.72;3.55;;;;;;;27.31;58.12;100378.25;4897591;29;20060;-79
2023/06/10 11:13:13;;;;;;;5.80;3.35;;;;;;;27.29;58.23;100375.06;4896983;29;20049;-79
2023/06/10 11:15:49;;;;;;;5.38;3.15;;;;;;;27.22;57.47;100375.06;4911298;29;20060;-78
2023/06/10 11:18:39;;;;;;;2.78;2.47;;;;;;;27.36;56.49;100382.66;4912609;29;20385;-78
2023/06/10 11:21:23;;;;;;;6.53;2.88;;;;;;;27.46;57.39;100370.63;4892333;29;20586;-78
2023/06/10 11:23:58;;;;;;;3.78;3.08;;;;;;;27.53;57.14;100372.66;4906219;29;20052;-79
2023/06/10 11:26:31;;;;;;;3.95;2.58;;;;;;;27.74;57.73;100376.66;4897723;29;20067;-79
2023/06/10 11:29:00;;;;;;;3.95;2.85;;;;;;;27.76;57.68;100368.63;4914968;29;20381;-78